createdAt,value
2023-03-31T00:01:46.229Z,1.20
2023-03-31T00:04:14.848Z,1.03
2023-03-31T00:06:44.003Z,1.30
2023-03-31T00:09:13.445Z,1.20
2023-03-31T00:11:42.222Z,0.90
2023-03-31T00:14:12.023Z,1.30
2023-03-31T00:16:41.196Z,1.50
2023-03-31T00:19:18.331Z,1.20
2023-03-31T00:21:48.118Z,1.77
2023-03-31T00:24:17.322Z,1.40
2023-03-31T00:26:46.257Z,1.00
2023-03-31T00:29:16.212Z,1.50
2023-03-31T00:31:44.825Z,1.67
2023-03-31T00:34:13.136Z,1.70
2023-03-31T00:36:45.972Z,1.50
2023-03-31T00:39:31.793Z,2.10
2023-03-31T00:42:00.914Z,1.77
2023-03-31T00:44:34.446Z,2.10
2023-03-31T00:47:09.256Z,1.83
2023-03-31T00:49:41.249Z,1.77
2023-03-31T00:52:13.448Z,1.53
2023-03-31T00:54:44.997Z,1.53
2023-03-31T00:57:14.031Z,1.70
2023-03-31T00:59:46.677Z,1.67
2023-03-31T01:02:15.721Z,1.50
2023-03-31T01:04:45.914Z,1.90
2023-03-31T01:07:18.504Z,2.10
2023-03-31T01:09:48.369Z,1.83
2023-03-31T01:12:18.158Z,1.73
2023-03-31T01:14:48.230Z,1.83
2023-03-31T01:17:28.372Z,2.47
2023-03-31T01:20:11.287Z,2.10
2023-03-31T01:23:00.126Z,1.87
2023-03-31T01:25:52.619Z,1.90
2023-03-31T01:28:25.746Z,1.97
2023-03-31T01:31:12.103Z,2.10
2023-03-31T01:33:49.774Z,2.17
2023-03-31T01:36:34.272Z,2.33
2023-03-31T01:39:32.805Z,2.30
2023-03-31T01:42:06.378Z,2.07
2023-03-31T01:44:37.705Z,2.20
2023-03-31T01:47:08.236Z,1.90
2023-03-31T01:49:40.002Z,1.70
2023-03-31T01:52:11.415Z,2.30
2023-03-31T01:54:41.923Z,2.03
2023-03-31T01:57:14.672Z,1.50
2023-03-31T01:59:47.237Z,1.60
2023-03-31T02:02:18.535Z,1.77
2023-03-31T02:04:49.503Z,2.27
2023-03-31T02:07:19.283Z,2.17
2023-03-31T02:09:50.454Z,1.67
2023-03-31T02:12:21.685Z,2.07
2023-03-31T02:14:52.736Z,2.30
2023-03-31T02:17:30.630Z,2.20
2023-03-31T02:20:00.280Z,1.60
2023-03-31T02:22:33.416Z,2.43
2023-03-31T02:25:03.219Z,1.80
2023-03-31T02:27:35.732Z,2.30
2023-03-31T02:30:05.141Z,2.07
2023-03-31T02:32:34.412Z,1.93
2023-03-31T02:35:03.522Z,2.43
2023-03-31T02:37:32.520Z,1.93
2023-03-31T02:40:02.673Z,1.67
2023-03-31T02:42:31.108Z,1.80
2023-03-31T02:45:04.981Z,1.83
2023-03-31T02:47:33.534Z,2.07
2023-03-31T02:50:03.785Z,2.17
2023-03-31T02:52:45.085Z,2.70
2023-03-31T02:55:18.115Z,2.63
2023-03-31T02:57:53.808Z,2.63
2023-03-31T03:00:28.363Z,2.30
2023-03-31T03:03:03.921Z,1.90
2023-03-31T03:05:37.572Z,2.23
2023-03-31T03:08:11.237Z,2.30
2023-03-31T03:10:46.704Z,2.30
2023-03-31T03:13:19.714Z,2.10
2023-03-31T03:15:51.093Z,1.80
2023-03-31T03:18:19.468Z,2.60
2023-03-31T03:20:51.013Z,2.10
2023-03-31T03:23:19.606Z,2.03
2023-03-31T03:25:48.582Z,2.50
2023-03-31T03:28:17.519Z,3.00
2023-03-31T03:30:46.051Z,2.07
2023-03-31T03:33:17.590Z,2.40
2023-03-31T03:35:46.623Z,2.87
2023-03-31T03:38:14.983Z,3.53
2023-03-31T03:40:43.508Z,2.13
2023-03-31T03:43:11.966Z,3.00
2023-03-31T03:45:40.348Z,2.90
2023-03-31T03:48:08.699Z,2.97
2023-03-31T03:50:40.230Z,2.00
2023-03-31T03:53:08.775Z,2.43
2023-03-31T03:55:37.469Z,2.87
2023-03-31T03:58:05.970Z,1.90
2023-03-31T04:00:34.662Z,2.20
2023-03-31T04:03:03.093Z,2.67
2023-03-31T04:05:31.634Z,2.03
2023-03-31T04:08:01.460Z,2.57
2023-03-31T04:10:29.927Z,2.10
2023-03-31T04:12:58.345Z,2.43
2023-03-31T04:15:26.602Z,2.10
2023-03-31T04:17:55.074Z,2.17
2023-03-31T04:20:28.090Z,2.80
2023-03-31T04:22:56.932Z,2.40
2023-03-31T04:25:30.646Z,1.70
2023-03-31T04:27:59.277Z,2.70
2023-03-31T04:30:30.827Z,2.03
2023-03-31T04:33:00.501Z,2.23
2023-03-31T04:35:49.692Z,2.60
2023-03-31T04:38:54.775Z,2.10
2023-03-31T04:41:25.138Z,2.80
2023-03-31T04:43:53.523Z,2.00
2023-03-31T04:46:22.236Z,2.13
2023-03-31T04:48:50.725Z,2.33
2023-03-31T04:51:20.280Z,2.80
2023-03-31T04:53:48.758Z,2.30
2023-03-31T04:56:17.166Z,2.57
2023-03-31T04:58:46.964Z,2.20
2023-03-31T05:01:18.311Z,1.90
2023-03-31T05:03:48.088Z,3.00
2023-03-31T05:06:16.709Z,2.87
2023-03-31T05:08:45.418Z,2.67
2023-03-31T05:11:13.845Z,3.07
2023-03-31T05:13:42.221Z,2.03
2023-03-31T05:16:14.419Z,2.30
2023-03-31T05:18:43.497Z,2.80
2023-03-31T05:21:13.031Z,2.17
2023-03-31T05:23:41.662Z,2.23
2023-03-31T05:26:10.138Z,2.83
2023-03-31T05:28:38.870Z,2.93
2023-03-31T05:31:08.341Z,3.10
2023-03-31T05:33:40.485Z,2.70
2023-03-31T05:36:10.304Z,2.83
2023-03-31T05:38:39.090Z,2.23
2023-03-31T05:41:09.191Z,2.53
2023-03-31T05:43:37.943Z,3.10
2023-03-31T05:46:06.692Z,2.43
2023-03-31T05:48:35.512Z,2.57
2023-03-31T05:51:05.510Z,2.70
2023-03-31T05:53:34.250Z,2.90
2023-03-31T05:56:03.365Z,3.40
2023-03-31T05:58:32.230Z,2.40
2023-03-31T06:01:07.578Z,2.77
2023-03-31T06:03:36.889Z,3.10
2023-03-31T06:06:07.798Z,2.50
2023-03-31T06:08:36.333Z,2.20
2023-03-31T06:11:06.877Z,3.40
2023-03-31T06:13:35.756Z,2.90
2023-03-31T06:16:05.560Z,2.40
2023-03-31T06:18:35.223Z,2.83
2023-03-31T06:21:03.851Z,4.27
2023-03-31T06:23:34.044Z,2.47
2023-03-31T06:26:03.402Z,3.10
2023-03-31T06:28:31.976Z,3.03
2023-03-31T06:31:04.187Z,2.90
2023-03-31T06:33:33.050Z,3.80
2023-03-31T06:36:01.822Z,2.40
2023-03-31T06:38:30.395Z,2.60
2023-03-31T06:41:00.262Z,2.40
2023-03-31T06:43:28.727Z,2.73
2023-03-31T06:45:58.169Z,3.60
2023-03-31T06:48:26.626Z,2.87
2023-03-31T06:50:55.421Z,2.70
2023-03-31T06:53:23.831Z,2.73
2023-03-31T06:55:52.446Z,2.70
2023-03-31T06:58:22.540Z,2.50
2023-03-31T07:00:51.120Z,2.90
2023-03-31T07:03:22.511Z,2.80
2023-03-31T07:05:51.225Z,2.90
2023-03-31T07:08:19.730Z,2.50
2023-03-31T07:10:49.009Z,3.40
2023-03-31T07:13:18.049Z,2.07
2023-03-31T07:15:49.277Z,2.30
2023-03-31T07:18:17.901Z,2.70
2023-03-31T07:20:46.433Z,2.90
2023-03-31T07:23:14.928Z,2.47
2023-03-31T07:25:43.270Z,3.03
2023-03-31T07:28:12.993Z,2.80
2023-03-31T07:30:42.136Z,3.00
2023-03-31T07:33:11.948Z,2.97
2023-03-31T07:35:41.028Z,3.00
2023-03-31T07:38:10.258Z,3.00
2023-03-31T07:40:39.165Z,2.80
2023-03-31T07:43:07.923Z,2.23
2023-03-31T07:45:36.709Z,2.97
2023-03-31T07:48:05.481Z,3.00
2023-03-31T07:50:35.385Z,2.83
2023-03-31T07:53:03.924Z,3.70
2023-03-31T07:55:32.203Z,2.80
2023-03-31T07:58:00.872Z,3.20
2023-03-31T08:00:29.361Z,2.87
2023-03-31T08:02:57.798Z,3.20
2023-03-31T08:05:26.305Z,2.80
2023-03-31T08:07:55.997Z,3.17
2023-03-31T08:10:25.601Z,3.10
2023-03-31T08:12:54.326Z,3.20
2023-03-31T08:15:23.198Z,3.63
2023-03-31T08:17:51.818Z,2.70
2023-03-31T08:20:20.358Z,2.50
2023-03-31T08:22:48.663Z,3.10
2023-03-31T08:25:18.757Z,3.70
2023-03-31T08:27:48.961Z,3.60
2023-03-31T08:30:17.764Z,3.03
2023-03-31T08:32:46.433Z,2.70
2023-03-31T08:35:15.348Z,2.67
2023-03-31T08:37:43.715Z,3.43
2023-03-31T08:40:16.474Z,2.43
2023-03-31T08:42:52.133Z,2.10
2023-03-31T08:45:22.801Z,2.57
2023-03-31T08:47:53.809Z,2.87
2023-03-31T08:50:25.457Z,2.30
2023-03-31T08:52:56.908Z,2.50
2023-03-31T08:55:27.437Z,2.63
2023-03-31T08:58:00.480Z,2.60
2023-03-31T09:00:33.262Z,2.70
2023-03-31T09:03:05.698Z,2.30
2023-03-31T09:05:59.488Z,2.10
2023-03-31T09:08:34.699Z,2.53
2023-03-31T09:11:08.534Z,1.80
2023-03-31T09:13:51.434Z,1.87
2023-03-31T09:16:21.969Z,2.13
2023-03-31T09:18:50.444Z,1.97
2023-03-31T09:21:23.018Z,1.80
2023-03-31T09:24:02.108Z,1.53
2023-03-31T09:26:43.241Z,1.60
2023-03-31T09:29:19.277Z,1.93
2023-03-31T09:31:47.756Z,1.93
2023-03-31T09:34:18.607Z,1.60
2023-03-31T09:36:47.640Z,3.10
2023-03-31T09:39:17.025Z,1.87
2023-03-31T09:41:46.692Z,1.80
2023-03-31T09:44:25.308Z,1.87
2023-03-31T09:46:54.434Z,1.43
2023-03-31T09:49:30.669Z,1.70
2023-03-31T09:52:02.446Z,1.53
2023-03-31T09:54:34.850Z,1.00
2023-03-31T09:57:03.534Z,1.10
2023-03-31T09:59:35.051Z,1.30
2023-03-31T10:02:07.345Z,1.20
2023-03-31T10:04:36.830Z,1.23
2023-03-31T10:07:08.068Z,1.17
2023-03-31T10:09:40.187Z,1.23
2023-03-31T10:12:10.478Z,1.17
2023-03-31T10:14:43.104Z,1.00
2023-03-31T10:17:15.924Z,1.40
2023-03-31T10:19:50.200Z,1.20
2023-03-31T10:22:28.607Z,1.63
2023-03-31T10:25:06.307Z,1.27
2023-03-31T10:27:36.888Z,0.97
2023-03-31T10:30:11.449Z,1.50
2023-03-31T10:32:46.984Z,1.07
2023-03-31T10:35:24.418Z,1.10
2023-03-31T10:37:53.242Z,1.20
2023-03-31T10:40:23.146Z,1.53
2023-03-31T10:42:59.716Z,1.43
2023-03-31T10:45:37.371Z,2.23
2023-03-31T10:48:07.720Z,1.50
2023-03-31T10:50:37.013Z,1.30
2023-03-31T10:53:14.022Z,1.60
2023-03-31T10:55:48.049Z,1.60
2023-03-31T10:58:23.307Z,1.30
2023-03-31T11:00:59.421Z,1.20
2023-03-31T11:03:40.410Z,1.30
2023-03-31T11:06:12.340Z,1.50
2023-03-31T11:08:47.485Z,1.90
2023-03-31T11:11:29.161Z,1.37
2023-03-31T11:14:21.605Z,1.30
2023-03-31T11:16:58.196Z,1.13
2023-03-31T11:19:31.650Z,1.43
2023-03-31T11:22:03.634Z,1.43
2023-03-31T11:24:36.607Z,1.80
2023-03-31T11:27:27.597Z,1.03
2023-03-31T11:30:01.031Z,1.00
2023-03-31T11:32:35.952Z,0.80
2023-03-31T11:35:09.300Z,0.70
2023-03-31T11:37:47.486Z,0.83
2023-03-31T11:40:24.763Z,0.70
2023-03-31T11:42:55.532Z,0.63
2023-03-31T11:45:27.477Z,0.60
2023-03-31T11:48:04.350Z,0.73
2023-03-31T11:50:38.587Z,0.50
2023-03-31T11:53:08.288Z,0.70
2023-03-31T11:55:37.563Z,0.70
2023-03-31T11:58:08.633Z,0.97
2023-03-31T12:00:38.935Z,1.13
2023-03-31T12:03:17.134Z,0.70
2023-03-31T12:05:47.868Z,0.73
2023-03-31T12:08:18.916Z,0.60
2023-03-31T12:10:49.420Z,0.63
2023-03-31T12:13:29.809Z,1.23
2023-03-31T12:16:02.994Z,1.13
2023-03-31T12:18:38.544Z,0.63
2023-03-31T12:21:07.421Z,0.80
2023-03-31T12:23:37.926Z,0.60
2023-03-31T12:26:08.940Z,0.63
2023-03-31T12:28:40.626Z,0.50
2023-03-31T12:31:10.500Z,1.23
2023-03-31T12:33:41.753Z,1.17
2023-03-31T12:36:16.290Z,0.70
2023-03-31T12:38:52.941Z,1.27
2023-03-31T12:41:24.979Z,0.60
2023-03-31T12:44:01.746Z,0.67
2023-03-31T12:46:38.394Z,0.63
2023-03-31T12:49:14.302Z,0.50
2023-03-31T12:51:52.072Z,0.67
2023-03-31T12:54:32.122Z,0.67
2023-03-31T12:57:17.462Z,0.80
2023-03-31T12:59:47.148Z,0.83
2023-03-31T13:02:25.853Z,0.70
2023-03-31T13:04:58.209Z,0.80
2023-03-31T13:07:38.200Z,1.07
2023-03-31T13:10:24.220Z,1.03
2023-03-31T13:12:59.749Z,0.90
2023-03-31T13:15:30.066Z,0.83
2023-03-31T13:18:02.919Z,0.47
2023-03-31T13:20:36.481Z,0.60
2023-03-31T13:23:06.770Z,0.63
2023-03-31T13:25:39.673Z,0.63
2023-03-31T13:28:13.955Z,0.57
2023-03-31T13:30:49.371Z,0.50
2023-03-31T13:33:22.009Z,0.57
2023-03-31T13:35:53.210Z,0.73
2023-03-31T13:38:29.378Z,0.70
2023-03-31T13:41:13.002Z,0.63
2023-03-31T13:44:02.411Z,0.73
2023-03-31T13:46:51.169Z,0.40
2023-03-31T13:49:31.073Z,0.40
2023-03-31T13:52:04.028Z,0.60
2023-03-31T13:54:36.017Z,0.60
2023-03-31T13:57:37.822Z,0.60
2023-03-31T14:00:27.622Z,0.40
2023-03-31T14:03:16.061Z,0.50
2023-03-31T14:05:46.744Z,0.70
2023-03-31T14:08:22.468Z,0.50
2023-03-31T14:10:51.044Z,0.50
2023-03-31T14:13:20.295Z,0.33
2023-03-31T14:15:50.715Z,0.50
2023-03-31T14:18:22.412Z,0.50
2023-03-31T14:21:00.810Z,0.30
2023-03-31T14:23:36.275Z,0.60
2023-03-31T14:26:16.111Z,0.37
2023-03-31T14:28:52.570Z,0.40
2023-03-31T14:31:24.253Z,0.40
2023-03-31T14:34:02.114Z,0.60
2023-03-31T14:36:38.288Z,0.47
2023-03-31T14:39:11.369Z,0.90
2023-03-31T14:41:40.373Z,0.30
2023-03-31T14:44:15.153Z,0.60
2023-03-31T14:46:43.612Z,0.60
2023-03-31T14:49:20.795Z,0.40
2023-03-31T14:51:49.647Z,0.50
2023-03-31T14:54:20.247Z,1.10
2023-03-31T14:56:50.044Z,0.63
2023-03-31T14:59:21.081Z,0.53
2023-03-31T15:01:59.259Z,0.30
2023-03-31T15:04:41.271Z,0.30
2023-03-31T15:07:10.682Z,0.30
2023-03-31T15:09:41.089Z,0.40
2023-03-31T15:12:13.741Z,0.43
2023-03-31T15:14:47.132Z,0.60
2023-03-31T15:17:29.958Z,0.30
2023-03-31T15:20:23.846Z,0.30
2023-03-31T15:22:52.524Z,0.30
2023-03-31T15:25:33.342Z,0.47
2023-03-31T15:28:11.610Z,0.40
2023-03-31T15:30:40.246Z,0.50
2023-03-31T15:33:19.084Z,0.77
2023-03-31T15:35:48.811Z,0.30
2023-03-31T15:38:18.587Z,0.53
2023-03-31T15:40:51.649Z,0.60
2023-03-31T15:43:25.984Z,0.57
2023-03-31T15:45:57.183Z,0.60
2023-03-31T15:48:34.925Z,0.50
2023-03-31T15:51:04.208Z,0.53
2023-03-31T15:53:34.014Z,0.97
2023-03-31T15:56:04.578Z,0.60
2023-03-31T15:58:49.676Z,0.67
2023-03-31T16:01:26.035Z,0.50
2023-03-31T16:03:55.507Z,0.67
2023-03-31T16:06:26.042Z,0.60
2023-03-31T16:08:58.795Z,0.50
2023-03-31T16:11:30.170Z,0.57
2023-03-31T16:14:02.373Z,0.43
2023-03-31T16:16:36.187Z,2.33
2023-03-31T16:19:06.055Z,0.80
2023-03-31T16:21:37.865Z,0.40
2023-03-31T16:24:06.957Z,3.20
2023-03-31T16:26:38.186Z,0.57
2023-03-31T16:29:09.438Z,0.50
2023-03-31T16:31:39.622Z,0.50
2023-03-31T16:34:09.159Z,0.40
2023-03-31T16:36:37.830Z,0.50
2023-03-31T16:39:07.149Z,0.50
2023-03-31T16:41:39.368Z,0.57
2023-03-31T16:44:07.928Z,0.67
2023-03-31T16:46:36.438Z,0.83
2023-03-31T16:49:06.371Z,0.67
2023-03-31T16:51:34.898Z,0.70
2023-03-31T16:54:05.555Z,0.70
2023-03-31T16:56:34.135Z,1.07
2023-03-31T16:59:04.140Z,0.50
2023-03-31T17:01:32.748Z,0.70
2023-03-31T17:04:01.171Z,0.60
2023-03-31T17:06:29.589Z,0.30
2023-03-31T17:08:58.132Z,0.50
2023-03-31T17:11:32.337Z,0.43
2023-03-31T17:14:08.122Z,0.70
2023-03-31T17:16:47.388Z,0.30
2023-03-31T17:19:17.361Z,0.50
2023-03-31T17:21:46.106Z,0.30
2023-03-31T17:24:14.599Z,0.50
2023-03-31T17:26:43.863Z,0.50
2023-03-31T17:29:14.683Z,0.87
2023-03-31T17:31:46.028Z,0.40
2023-03-31T17:34:14.705Z,0.40
2023-03-31T17:36:44.438Z,0.40
2023-03-31T17:39:13.421Z,0.60
2023-03-31T17:41:45.882Z,0.33
2023-03-31T17:44:14.558Z,0.60
2023-03-31T17:46:43.462Z,0.50
2023-03-31T17:49:13.811Z,0.53
2023-03-31T17:51:43.703Z,1.00
2023-03-31T17:54:12.638Z,0.50
2023-03-31T17:56:41.704Z,0.50
2023-03-31T17:59:11.443Z,0.70
2023-03-31T18:01:40.336Z,0.50
2023-03-31T18:04:15.971Z,0.53
2023-03-31T18:06:47.977Z,1.57
2023-03-31T18:09:17.290Z,0.60
2023-03-31T18:11:46.185Z,0.53
2023-03-31T18:14:15.014Z,0.60
2023-03-31T18:16:44.201Z,0.60
2023-03-31T18:19:14.407Z,0.57
2023-03-31T18:21:46.728Z,0.40
2023-03-31T18:24:18.818Z,0.50
2023-03-31T18:26:48.142Z,0.40
2023-03-31T18:29:17.037Z,0.40
2023-03-31T18:31:46.550Z,0.50
2023-03-31T18:34:16.377Z,0.40
2023-03-31T18:36:46.490Z,1.00
2023-03-31T18:39:17.046Z,0.70
2023-03-31T18:41:47.175Z,0.60
2023-03-31T18:44:16.945Z,0.50
2023-03-31T18:46:46.490Z,0.33
2023-03-31T18:49:15.830Z,0.63
2023-03-31T18:51:44.939Z,0.70
2023-03-31T18:54:17.768Z,0.50
2023-03-31T18:56:47.681Z,0.60
2023-03-31T18:59:17.191Z,0.30
2023-03-31T19:01:45.911Z,0.30
2023-03-31T19:04:18.310Z,0.30
2023-03-31T19:06:47.745Z,0.40
2023-03-31T19:09:17.807Z,0.30
2023-03-31T19:11:48.678Z,0.60
2023-03-31T19:14:22.955Z,0.40
2023-03-31T19:16:51.946Z,0.60
2023-03-31T19:19:20.856Z,0.60
2023-03-31T19:21:50.184Z,0.40
2023-03-31T19:24:21.965Z,0.50
2023-03-31T19:26:52.081Z,0.77
2023-03-31T19:29:28.077Z,0.40
2023-03-31T19:31:56.691Z,0.43
2023-03-31T19:34:25.293Z,0.47
2023-03-31T19:36:53.939Z,0.50
2023-03-31T19:39:22.628Z,0.40
2023-03-31T19:41:52.654Z,0.70
2023-03-31T19:44:24.402Z,0.40
2023-03-31T19:46:54.240Z,0.40
2023-03-31T19:49:23.084Z,0.40
2023-03-31T19:51:57.978Z,0.57
2023-03-31T19:54:26.849Z,0.53
2023-03-31T19:56:57.217Z,0.50
2023-03-31T19:59:25.950Z,0.40
2023-03-31T20:01:54.662Z,0.73
2023-03-31T20:04:25.716Z,0.40
2023-03-31T20:06:54.962Z,0.60
2023-03-31T20:09:26.057Z,0.50
2023-03-31T20:11:56.760Z,0.67
2023-03-31T20:14:28.910Z,0.40
2023-03-31T20:17:01.223Z,0.30
2023-03-31T20:19:34.521Z,0.50
2023-03-31T20:22:03.129Z,0.30
2023-03-31T20:24:31.892Z,0.50
2023-03-31T20:27:02.020Z,0.47
2023-03-31T20:29:30.648Z,0.70
2023-03-31T20:31:59.271Z,0.87
2023-03-31T20:34:28.584Z,0.40
2023-03-31T20:36:57.281Z,0.83
2023-03-31T20:39:26.198Z,0.67
2023-03-31T20:41:55.798Z,0.40
2023-03-31T20:44:26.631Z,0.50
2023-03-31T20:46:59.227Z,0.50
2023-03-31T20:49:28.318Z,0.60
2023-03-31T20:51:57.416Z,0.30
2023-03-31T20:54:26.534Z,0.30
2023-03-31T20:56:55.494Z,0.40
2023-03-31T20:59:25.561Z,1.17
2023-03-31T21:01:54.188Z,0.50
2023-03-31T21:04:23.395Z,0.70
2023-03-31T21:06:53.942Z,0.70
2023-03-31T21:09:24.268Z,0.40
2023-03-31T21:11:52.998Z,0.47
2023-03-31T21:14:22.029Z,0.77
2023-03-31T21:17:04.762Z,0.97
2023-03-31T21:19:34.701Z,0.40
2023-03-31T21:22:03.322Z,0.50
2023-03-31T21:24:31.768Z,0.50
2023-03-31T21:27:00.534Z,0.33
2023-03-31T21:29:30.049Z,0.30
2023-03-31T21:31:58.639Z,0.43
2023-03-31T21:34:27.417Z,0.43
2023-03-31T21:36:58.510Z,0.63
2023-03-31T21:39:27.712Z,0.87
2023-03-31T21:42:02.672Z,0.70
2023-03-31T21:44:31.501Z,0.60
2023-03-31T21:47:00.022Z,0.50
2023-03-31T21:49:28.690Z,0.43
2023-03-31T21:51:59.795Z,0.50
2023-03-31T21:54:28.214Z,0.40
2023-03-31T21:57:03.041Z,0.40
2023-03-31T21:59:31.977Z,0.30
2023-03-31T22:02:02.003Z,0.93
2023-03-31T22:04:32.101Z,0.47
2023-03-31T22:07:02.501Z,0.30
2023-03-31T22:09:31.062Z,0.30
2023-03-31T22:11:59.648Z,0.63
2023-03-31T22:14:28.191Z,0.30
2023-03-31T22:16:57.042Z,0.30
2023-03-31T22:19:25.771Z,0.67
2023-03-31T22:21:54.661Z,0.50
2023-03-31T22:24:24.420Z,0.30
2023-03-31T22:26:53.169Z,0.80
2023-03-31T22:29:21.573Z,0.30
2023-03-31T22:31:50.073Z,0.60
2023-03-31T22:34:19.569Z,0.37
2023-03-31T22:36:50.539Z,0.37
2023-03-31T22:39:19.241Z,0.50
2023-03-31T22:41:50.452Z,0.30
2023-03-31T22:44:20.044Z,0.30
2023-03-31T22:46:50.042Z,0.30
2023-03-31T22:49:18.695Z,0.40
2023-03-31T22:51:47.571Z,0.50
2023-03-31T22:54:16.863Z,0.30
2023-03-31T22:56:45.683Z,0.47
2023-03-31T22:59:17.412Z,0.40
2023-03-31T23:01:47.134Z,0.47
2023-03-31T23:04:15.681Z,0.30
2023-03-31T23:06:44.450Z,0.30
2023-03-31T23:09:13.270Z,0.30
2023-03-31T23:11:41.954Z,0.40
2023-03-31T23:14:10.524Z,0.43
2023-03-31T23:16:40.787Z,0.30
2023-03-31T23:19:09.454Z,0.30
2023-03-31T23:21:38.141Z,0.33
2023-03-31T23:24:07.048Z,0.30
2023-03-31T23:26:36.007Z,0.30
2023-03-31T23:29:04.650Z,0.50
2023-03-31T23:31:34.654Z,0.30
2023-03-31T23:34:04.721Z,0.30
2023-03-31T23:36:33.484Z,0.30
2023-03-31T23:39:02.776Z,0.30
2023-03-31T23:41:33.412Z,0.50
2023-03-31T23:44:02.095Z,0.30
2023-03-31T23:46:31.874Z,0.40
2023-03-31T23:49:01.879Z,0.43
2023-03-31T23:51:31.844Z,0.30
2023-03-31T23:54:00.651Z,0.30
2023-03-31T23:56:29.492Z,0.30
2023-03-31T23:58:58.235Z,0.30
